Terminal Aerodrome Forecast
Issued by NWS

Home | Current Version | Previous Version | Graphics & Text | Print | Product List | Glossary On
Versions: 1 2 3 4 5 6 7 8 9 10 11 12 13 14 15 16 17
000
FTUS43 KICT 301700
TAFCNU
TAF
KCNU 301727Z 3018/3118 VRB05KT P6SM SCT040
     FM311100 16005KT 4SM BR SCT250
     FM311500 17012KT P6SM FEW030=

USA.gov is the U.S. government's official web portal to all federal, state and local government web resources and services.